createdAt,value
2022-11-26T00:02:35.117Z,96690.31
2022-11-26T00:07:37.448Z,96709.06
2022-11-26T00:12:39.644Z,96703.09
2022-11-26T00:17:41.881Z,96721.03
2022-11-26T00:22:51.099Z,96722.75
2022-11-26T00:27:56.199Z,96729.03
2022-11-26T00:32:58.557Z,96733.50
2022-11-26T00:38:00.816Z,96717.13
2022-11-26T00:43:02.900Z,96729.28
2022-11-26T00:48:05.313Z,96734.03
2022-11-26T00:53:10.755Z,96732.53
2022-11-26T00:58:30.702Z,96736.78
2022-11-26T01:03:32.881Z,96731.69
2022-11-26T01:08:36.392Z,96725.72
2022-11-26T01:13:38.667Z,96748.09
2022-11-26T01:18:40.696Z,96742.91
2022-11-26T01:23:42.922Z,96720.78
2022-11-26T01:28:45.644Z,96702.22
2022-11-26T01:33:47.954Z,96682.59
2022-11-26T01:38:59.759Z,96720.34
2022-11-26T01:44:04.753Z,96691.47
2022-11-26T01:49:18.534Z,96689.50
2022-11-26T01:54:21.323Z,96693.03
2022-11-26T01:59:33.517Z,96713.84
2022-11-26T02:04:41.512Z,96721.84
2022-11-26T02:09:44.465Z,96705.59
2022-11-26T02:14:46.992Z,96732.19
2022-11-26T02:19:58.036Z,96734.13
2022-11-26T02:25:43.286Z,96737.34
2022-11-26T02:30:50.422Z,96728.34
2022-11-26T02:36:09.961Z,96746.00
2022-11-26T02:41:12.233Z,96733.03
2022-11-26T02:46:19.821Z,96729.09
2022-11-26T02:51:29.572Z,96753.31
2022-11-26T02:56:36.287Z,96739.81
2022-11-26T03:01:44.675Z,96775.91
2022-11-26T03:06:47.530Z,96779.47
2022-11-26T03:11:50.336Z,96776.06
2022-11-26T03:16:52.497Z,96768.66
2022-11-26T03:21:54.607Z,96761.75
2022-11-26T03:26:56.863Z,96768.66
2022-11-26T03:31:59.768Z,96785.97
2022-11-26T03:37:02.291Z,96774.88
2022-11-26T03:42:04.583Z,96792.13
2022-11-26T03:47:06.805Z,96804.94
2022-11-26T03:52:09.066Z,96788.56
2022-11-26T03:57:11.362Z,96794.53
2022-11-26T04:02:13.447Z,96816.16
2022-11-26T04:07:15.693Z,96806.75
2022-11-26T04:12:18.100Z,96829.88
2022-11-26T04:17:20.383Z,96818.91
2022-11-26T04:22:22.658Z,96820.66
2022-11-26T04:27:24.682Z,96836.06
2022-11-26T04:32:26.955Z,96847.16
2022-11-26T04:37:29.099Z,96857.47
2022-11-26T04:42:31.572Z,96842.09
2022-11-26T04:47:33.735Z,96854.09
2022-11-26T04:52:35.871Z,96875.63
2022-11-26T04:57:38.119Z,96868.81
2022-11-26T05:02:40.379Z,96881.59
2022-11-26T05:07:42.519Z,96861.00
2022-11-26T05:12:44.593Z,96867.78
2022-11-26T05:17:46.822Z,96871.25
2022-11-26T05:22:49.007Z,96876.41
2022-11-26T05:27:51.191Z,96877.16
2022-11-26T05:32:53.298Z,96890.06
2022-11-26T05:37:55.416Z,96889.28
2022-11-26T05:42:57.719Z,96909.81
2022-11-26T05:47:59.965Z,96918.31
2022-11-26T05:53:02.415Z,96910.56
2022-11-26T05:58:04.560Z,96917.47
2022-11-26T06:03:06.766Z,96924.38
2022-11-26T06:08:09.124Z,96923.47
2022-11-26T06:13:11.204Z,96950.06
2022-11-26T06:18:13.329Z,96943.13
2022-11-26T06:23:15.530Z,96948.13
2022-11-26T06:28:17.749Z,96958.34
2022-11-26T06:33:23.294Z,96956.69
2022-11-26T06:38:25.466Z,96956.84
2022-11-26T06:43:27.818Z,96911.31
2022-11-26T06:48:30.860Z,96973.53
2022-11-26T06:53:33.652Z,96959.59
2022-11-26T06:58:35.837Z,96955.25
2022-11-26T07:03:38.564Z,96975.59
2022-11-26T07:08:40.700Z,96957.91
2022-11-26T07:13:43.795Z,96968.16
2022-11-26T07:18:51.330Z,96947.59
2022-11-26T07:23:54.337Z,96919.72
2022-11-26T07:28:56.665Z,96908.38
2022-11-26T07:33:58.775Z,96914.78
2022-11-26T07:39:02.871Z,96914.66
2022-11-26T07:44:05.226Z,96917.91
2022-11-26T07:49:07.583Z,96901.91
2022-11-26T07:54:10.235Z,96919.56
2022-11-26T07:59:12.639Z,96918.84
2022-11-26T08:04:14.857Z,96927.03
2022-11-26T08:09:17.075Z,96932.88
2022-11-26T08:14:19.285Z,96914.00
2022-11-26T08:19:21.367Z,96927.91
2022-11-26T08:24:24.353Z,96918.63
2022-11-26T08:29:26.746Z,96935.84
2022-11-26T08:34:28.863Z,96937.91
2022-11-26T08:39:30.867Z,96950.16
2022-11-26T08:44:33.069Z,96944.13
2022-11-26T08:49:35.315Z,96951.84
2022-11-26T08:54:42.035Z,96916.72
2022-11-26T08:59:46.686Z,96934.72
2022-11-26T09:04:49.154Z,96954.81
2022-11-26T09:09:51.364Z,96942.66
2022-11-26T09:14:53.854Z,96925.31
2022-11-26T09:19:57.399Z,96959.88
2022-11-26T09:24:59.785Z,96934.94
2022-11-26T09:30:02.860Z,96946.41
2022-11-26T09:35:05.418Z,96931.34
2022-11-26T09:40:10.274Z,96920.66
2022-11-26T09:45:39.962Z,96930.38
2022-11-26T09:50:43.953Z,96912.41
2022-11-26T09:55:50.000Z,96909.88
2022-11-26T10:00:54.724Z,96902.63
2022-11-26T10:06:06.493Z,96918.63
2022-11-26T10:11:19.618Z,96922.00
2022-11-26T10:16:30.150Z,96891.41
2022-11-26T10:21:58.732Z,96898.91
2022-11-26T10:27:11.118Z,96895.28
2022-11-26T10:32:26.627Z,96912.16
2022-11-26T10:37:29.929Z,96874.91
2022-11-26T10:42:44.805Z,96898.59
2022-11-26T10:47:47.315Z,96916.13
2022-11-26T10:52:51.854Z,96919.94
2022-11-26T10:57:58.204Z,96911.56
2022-11-26T11:03:02.287Z,96914.97
2022-11-26T11:08:04.770Z,96925.72
2022-11-26T11:13:12.377Z,96897.59
2022-11-26T11:18:14.555Z,96922.88
2022-11-26T11:23:16.567Z,96911.50
2022-11-26T11:28:25.467Z,96892.97
2022-11-26T11:33:29.951Z,96882.97
2022-11-26T11:38:45.824Z,96905.06
2022-11-26T11:43:48.684Z,96896.84
2022-11-26T11:49:04.486Z,96910.09
2022-11-26T11:54:31.518Z,96907.63
2022-11-26T12:00:12.384Z,96912.72
2022-11-26T12:05:36.313Z,96918.94
2022-11-26T12:10:41.785Z,96912.03
2022-11-26T12:15:55.790Z,96891.47
2022-11-26T12:21:08.650Z,96908.00
2022-11-26T12:26:21.058Z,96891.44
2022-11-26T12:31:39.197Z,96899.09
2022-11-26T12:37:00.634Z,96896.25
2022-11-26T12:42:17.183Z,96916.50
2022-11-26T12:47:27.090Z,96898.16
2022-11-26T12:52:54.546Z,96925.69
2022-11-26T12:58:16.093Z,96928.88
2022-11-26T13:03:24.096Z,96924.06
2022-11-26T13:08:48.931Z,96938.59
2022-11-26T13:14:10.437Z,96916.16
2022-11-26T13:19:18.542Z,96947.31
2022-11-26T13:24:20.780Z,96943.50
2022-11-26T13:29:37.790Z,96946.13
2022-11-26T13:34:49.180Z,96955.31
2022-11-26T13:39:51.205Z,96958.66
2022-11-26T13:44:53.389Z,96959.09
2022-11-26T13:50:20.175Z,96963.13
2022-11-26T13:55:22.339Z,96968.06
2022-11-26T14:00:31.039Z,96972.34
2022-11-26T14:06:03.644Z,96976.44
2022-11-26T14:11:09.507Z,96965.06
2022-11-26T14:16:11.750Z,96988.72
2022-11-26T14:21:15.678Z,97002.16
2022-11-26T14:26:40.259Z,97010.16
2022-11-26T14:31:48.353Z,97015.69
2022-11-26T14:37:01.326Z,97011.34
2022-11-26T14:42:06.388Z,97034.13
2022-11-26T14:47:20.200Z,97012.34
2022-11-26T14:52:25.351Z,97045.22
2022-11-26T14:57:33.113Z,97055.28
2022-11-26T15:02:40.330Z,97064.06
2022-11-26T15:07:43.244Z,97072.66
2022-11-26T15:12:47.960Z,97079.75
2022-11-26T15:18:05.814Z,97049.00
2022-11-26T15:23:18.586Z,97084.94
2022-11-26T15:28:23.104Z,97101.59
2022-11-26T15:33:28.182Z,97083.81
2022-11-26T15:38:33.115Z,97115.19
2022-11-26T15:43:47.008Z,97105.91
2022-11-26T15:48:59.325Z,97131.09
2022-11-26T15:54:02.887Z,97117.81
2022-11-26T15:59:16.786Z,97116.91
2022-11-26T16:04:37.658Z,97132.69
2022-11-26T16:09:40.168Z,97142.59
2022-11-26T16:14:43.529Z,97134.47
2022-11-26T16:19:59.465Z,97143.28
2022-11-26T16:25:06.252Z,97148.00
2022-11-26T16:30:15.919Z,97125.66
2022-11-26T16:35:44.327Z,97153.84
2022-11-26T16:40:40.320Z,97132.75
2022-11-26T16:45:42.684Z,97139.75
2022-11-26T16:50:44.945Z,97149.06
2022-11-26T16:55:47.432Z,97157.63
2022-11-26T17:00:51.324Z,97148.53
2022-11-26T17:05:56.707Z,97173.53
2022-11-26T17:10:58.959Z,97166.53
2022-11-26T17:16:02.489Z,97157.28
2022-11-26T17:21:04.516Z,97157.38
2022-11-26T17:26:21.438Z,97159.22
2022-11-26T17:31:23.843Z,97174.69
2022-11-26T17:36:26.333Z,97172.09
2022-11-26T17:41:28.379Z,97166.09
2022-11-26T17:46:35.703Z,97195.41
2022-11-26T17:51:45.181Z,97176.63
2022-11-26T17:56:47.251Z,97185.25
2022-11-26T18:01:49.582Z,97191.16
2022-11-26T18:07:10.553Z,97202.47
2022-11-26T18:12:31.290Z,97205.91
2022-11-26T18:17:33.910Z,97200.03
2022-11-26T18:22:36.302Z,97202.63
2022-11-26T18:27:38.372Z,97171.72
2022-11-26T18:32:40.931Z,97215.53
2022-11-26T18:37:43.269Z,97238.78
2022-11-26T18:42:45.645Z,97223.31
2022-11-26T18:47:47.824Z,97187.28
2022-11-26T18:52:49.842Z,97234.50
2022-11-26T18:57:52.117Z,97237.06
2022-11-26T19:02:54.464Z,97259.38
2022-11-26T19:07:56.729Z,97250.78
2022-11-26T19:12:59.097Z,97257.69
2022-11-26T19:18:01.139Z,97268.81
2022-11-26T19:23:03.280Z,97269.66
2022-11-26T19:28:05.544Z,97263.69
2022-11-26T19:33:08.070Z,97255.13
2022-11-26T19:38:10.338Z,97259.41
2022-11-26T19:43:12.526Z,97277.41
2022-11-26T19:48:15.026Z,97286.03
2022-11-26T19:53:17.207Z,97280.00
2022-11-26T19:58:19.412Z,97269.72
2022-11-26T20:03:23.015Z,97281.72
2022-11-26T20:08:25.264Z,97287.75
2022-11-26T20:13:27.438Z,97275.72
2022-11-26T20:18:29.467Z,97280.84
2022-11-26T20:23:32.165Z,97295.41
2022-11-26T20:28:34.267Z,97285.13
2022-11-26T20:33:36.525Z,97286.84
2022-11-26T20:38:40.423Z,97283.38
2022-11-26T20:43:43.430Z,97288.53
2022-11-26T20:48:45.724Z,97269.66
2022-11-26T20:53:50.320Z,97268.81
2022-11-26T20:58:53.160Z,97288.53
2022-11-26T21:03:55.978Z,97283.34
2022-11-26T21:09:03.281Z,97295.28
2022-11-26T21:14:10.651Z,97292.75
2022-11-26T21:19:15.946Z,97285.06
2022-11-26T21:24:18.288Z,97283.28
2022-11-26T21:29:20.699Z,97285.03
2022-11-26T21:34:22.774Z,97293.63
2022-11-26T21:39:27.197Z,97293.63
2022-11-26T21:44:29.279Z,97291.00
2022-11-26T21:49:34.438Z,97292.69
2022-11-26T21:54:37.503Z,97291.88
2022-11-26T21:59:40.071Z,97300.50
2022-11-26T22:04:42.394Z,97285.91
2022-11-26T22:09:44.412Z,97307.38
2022-11-26T22:14:47.431Z,97297.81
2022-11-26T22:19:49.586Z,97292.56
2022-11-26T22:24:51.877Z,97278.00
2022-11-26T22:29:53.929Z,97296.03
2022-11-26T22:34:55.974Z,97288.38
2022-11-26T22:39:58.315Z,97283.22
2022-11-26T22:45:00.491Z,97284.97
2022-11-26T22:50:02.808Z,97270.41
2022-11-26T22:55:05.329Z,97285.84
2022-11-26T23:00:12.847Z,97282.41
2022-11-26T23:05:15.252Z,97275.56
2022-11-26T23:10:17.524Z,97279.84
2022-11-26T23:15:19.736Z,97282.41
2022-11-26T23:20:21.774Z,97272.97
2022-11-26T23:25:23.861Z,97270.38
2022-11-26T23:30:26.916Z,97284.13
2022-11-26T23:35:29.462Z,97270.38
2022-11-26T23:40:31.843Z,97280.53
2022-11-26T23:45:33.943Z,97282.25
2022-11-26T23:50:38.429Z,97288.28
2022-11-26T23:55:59.761Z,97285.66
